LFMD/CEQ METAR and TAF weather

Enter ICAO airport designator
Station Type Date Time Source
LFMD METAR 2019/06/19 01:00 UTC NOAA

LFMD 190100Z AUTO 36003KT 320V020 CAVOK 18/12 Q1013


Station Type Date Time Source
LFMD Decoded METAR 2019/06/19 01:00 UTC NOAA

Cannes, France (LFMD) 43-33N 006-57E 9M
Jun 18, 2019 - 09:00 PM EDT / 2019.06.19 0100 UTC
Wind: from the N (360 degrees) at 3 MPH (3 KT) (direction variable):0
Visibility: greater than 7 mile(s):0
Temperature: 64 F (18 C)
Dew Point: 53 F (12 C)
Relative Humidity: 67%
Pressure (altimeter): 29.91 in. Hg (1013 hPa)
ob: LFMD 190100Z AUTO 36003KT 320V020 CAVOK 18/12 Q1013
cycle: 1

Station Type Date Time Source
LFMD TAF 2019/06/18 20:54 UTC NOAA

TAF LFMD 182047Z 1820/1915 CNL

Example: see airport list